• Join FlightAware (Why Join?)
  • Login
  • US Flag 
11:47AM EDT


 

Airport Tracker/Info


-or-


 

Live Flight TrackerFlight Track Log ✈ SKQ221 ✈ 13-May-2013 ✈ KCMH - KPWK

Flight Track Log - Related Links

Times and Time Zones

All times are in EDT time to prevent confusion due to time zone crossing. See the SKQ221 flight status page for this flight to view local times or setup timezone preferences in your user account.

Time Position Orientation Groundspeed Altitude Reporting Facility
EDT Latitude Longitude Course Direction KTS MPH feet Rate Location/Type
06:56PM 39.9972 -82.8958 306° West 103 119 1,100  Level Indianapolis Center
06:57PM 40.0253 -82.9456 306° West 135 155 2,500 960 Climbing Indianapolis Center
06:58PM 40.0378 -82.9636 312° West 130 150 2,900 780 Climbing Indianapolis Center
06:58PM 40.0517 -82.9894 305° West 135 155 3,400 720 Climbing Indianapolis Center
06:59PM 40.0606 -83.0039 309° West 134 154 3,700 960 Climbing Indianapolis Center
06:59PM 40.0719 -83.0269 303° West 137 158 4,300 960 Climbing Indianapolis Center
07:00PM 40.0836 -83.0436 312° West 135 155 4,700 780 Climbing Indianapolis Center
07:00PM 40.0964 -83.0681 304° West 140 161 5,100 720 Climbing Indianapolis Center
07:01PM 40.1075 -83.0861 309° West 139 160 5,500 600 Climbing Indianapolis Center
07:01PM 40.1225 -83.1147 304° West 152 175 5,800 480 Climbing Indianapolis Center
07:02PM 40.1333 -83.1308 311° West 147 169 6,000 120 Climbing Indianapolis Center
07:02PM 40.1542 -83.1703 305° West 167 192 6,000  Level Indianapolis Center
07:03PM 40.1608 -83.1797 313° West 156 180 6,000  Level Indianapolis Center
07:03PM 40.1822 -83.2200 305° West 186 214 6,000  Level Indianapolis Center
07:04PM 40.1950 -83.2408 309° West 169 194 6,000  Level Indianapolis Center
07:04PM 40.2083 -83.2667 304° West 175 201 6,000  Level Indianapolis Center
07:05PM 40.2231 -83.2928 306° West 173 199 6,000  Level Indianapolis Center
07:06PM 40.2514 -83.3425 307° West 172 198 6,000  Level Indianapolis Center
07:07PM 40.2800 -83.3939 306° West 173 199 6,000  Level Indianapolis Center
07:08PM 40.3097 -83.4456 307° West 174 200 6,000  Level Indianapolis Center
07:09PM 40.3389 -83.4978 306° West 175 201 6,000  Level Indianapolis Center
07:10PM 40.3681 -83.5503 306° West 176 203 6,000  Level Indianapolis Center
07:11PM 40.4006 -83.6094 306° West 174 200 6,000  Level Indianapolis Center
07:12PM 40.4289 -83.6600 306° West 172 198 6,000  Level Indianapolis Center
07:13PM 40.4564 -83.7106 306° West 170 196 6,000  Level Indianapolis Center
07:14PM 40.4839 -83.7611 306° West 169 194 6,000  Level Indianapolis Center
07:15PM 40.5131 -83.8122 307° West 171 197 6,000  Level Indianapolis Center
07:16PM 40.5414 -83.8633 306° West 172 198 6,000  Level Indianapolis Center
07:17PM 40.5692 -83.9147 305° West 171 197 6,000  Level Indianapolis Center
07:18PM 40.6011 -83.9733 306° West 169 194 6,000  Level Indianapolis Center
07:19PM 40.6292 -84.0244 306° West 170 196 6,000  Level Indianapolis Center
07:20PM 40.6583 -84.0747 307° West 171 197 6,000  Level Indianapolis Center
07:21PM 40.6861 -84.1269 305° West 171 197 6,000  Level Indianapolis Center
07:22PM 40.7133 -84.1789 305° West 171 197 6,000  Level Indianapolis Center
07:23PM 40.7417 -84.2300 306° West 172 198 6,000  Level Indianapolis Center
07:24PM 40.7700 -84.2811 306° West 171 197 6,000  Level Indianapolis Center
07:25PM 40.7981 -84.3331 306° West 171 197 6,000  Level Indianapolis Center
07:27PM 40.8308 -84.3911 307° West 171 197 6,000  Level Chicago Center
07:28PM 40.8592 -84.4436 306° West 173 199 6,000  Level Chicago Center
07:29PM 40.8872 -84.4950 306° West 173 199 6,000  Level Chicago Center
07:30PM 40.9150 -84.5461 306° West 172 198 6,000  Level Chicago Center
07:31PM 40.9478 -84.6089 305° West 173 199 6,000  Level Chicago Center
07:32PM 40.9756 -84.6589 306° West 171 197 6,000  Level Chicago Center
07:33PM 41.0039 -84.7108 306° West 172 198 6,000  Level Chicago Center
07:34PM 41.0317 -84.7636 305° West 174 200 6,000  Level Chicago Center
07:35PM 41.0594 -84.8153 306° West 174 200 6,000  Level Chicago Center
07:36PM 41.0869 -84.8689 304° West 174 200 6,000  Level Chicago Center
07:37PM 41.1200 -84.9314 305° West 173 199 6,000  Level Chicago Center
07:38PM 41.1472 -84.9831 305° West 173 199 6,000  Level Chicago Center
07:39PM 41.1744 -85.0342 305° West 171 197 6,000  Level Chicago Center
07:40PM 41.2019 -85.0858 305° West 171 197 6,000  Level Chicago Center
07:41PM 41.2297 -85.1392 305° West 173 199 6,000  Level Chicago Center
07:42PM 41.2569 -85.1908 305° West 172 198 6,000  Level Chicago Center
07:43PM 41.2906 -85.2539 305° West 173 199 6,000  Level Chicago Center
07:44PM 41.3175 -85.3050 305° West 172 198 6,000  Level Chicago Center
07:45PM 41.3436 -85.3547 305° West 168 193 6,000  Level Chicago Center
07:46PM 41.3692 -85.4042 305° West 165 190 6,000  Level Chicago Center
07:47PM 41.3958 -85.4533 306° West 163 188 6,000  Level Chicago Center
07:48PM 41.4211 -85.5025 304° West 162 186 6,000  Level Chicago Center
07:49PM 41.4467 -85.5539 304° West 164 189 6,000  Level Chicago Center
07:50PM 41.4731 -85.6050 305° West 165 190 6,000  Level Chicago Center
07:51PM 41.5053 -85.6656 305° West 166 191 6,000  Level Chicago Center
07:52PM 41.5308 -85.7169 304° West 166 191 6,000  Level Chicago Center
07:53PM 41.5575 -85.7669 305° West 166 191 6,000  Level Chicago Center
07:54PM 41.5842 -85.8181 305° West 167 192 6,000  Level Chicago Center
07:55PM 41.6114 -85.8686 306° West 166 191 6,000  Level Chicago Center
07:56PM 41.6369 -85.9197 304° West 166 191 6,000  Level Chicago Center
07:58PM 41.6686 -85.9808 305° West 166 191 6,000  Level Chicago Center
07:59PM 41.6942 -86.0317 304° West 166 191 6,000  Level Chicago Center
08:00PM 41.7194 -86.0822 304° West 164 189 6,000  Level Chicago Center
08:01PM 41.7464 -86.1328 306° West 167 192 6,000  Level Chicago Center
08:02PM 41.7733 -86.1847 305° West 170 196 6,000  Level Chicago Center
08:03PM 41.7992 -86.2364 304° West 168 193 6,000  Level Chicago Center
08:04PM 41.8250 -86.2872 304° West 166 191 6,000  Level Chicago Center
08:05PM 41.8564 -86.3500 304° West 168 193 6,000  Level Chicago Center
08:06PM 41.8828 -86.4031 304° West 170 196 6,000  Level Chicago Center
08:07PM 41.9097 -86.4542 305° West 168 193 6,000  Level Chicago Center
08:08PM 41.9367 -86.5053 305° West 169 194 6,000  Level Chicago Center
08:09PM 41.9628 -86.5575 304° West 168 193 6,000  Level Chicago Center
08:10PM 41.9883 -86.6100 303° West 168 193 6,000 -120 Level Chicago Center
08:11PM 42.0194 -86.6739 303° West 170 196 5,800 -360 Descending Chicago Center
08:12PM 42.0486 -86.7303 305° West 180 207 5,300 -540 Descending Chicago Center
08:13PM 42.0772 -86.7872 304° West 184 212 4,800 -540 Descending Chicago Center
08:14PM 42.1061 -86.8444 304° West 185 213 4,300 -420 Descending Chicago Center
08:15PM 42.1350 -86.9033 303° West 187 215 4,000 -180 Descending Chicago Center
08:16PM 42.1556 -86.9594 296° West 175 201 4,000  Level Chicago Center
08:17PM 42.1597 -87.0361 274° West 171 197 4,000 -60 Level Chicago Center
08:18PM 42.1644 -87.1003 276° West 170 196 3,900 -60 Descending Chicago Center
08:19PM 42.1692 -87.1639 276° West 172 198 3,900  Level Chicago Center
08:20PM 42.1739 -87.2272 276° West 171 197 3,900  Level Chicago Center
08:21PM 42.1778 -87.2897 275° West 169 194 3,900  Level Chicago Center
08:22PM 42.1828 -87.3647 275° West 169 194 3,900  Level Chicago Center
08:23PM 42.1861 -87.4264 274° West 167 192 3,900  Level Chicago Center
08:24PM 42.1903 -87.4875 275° West 167 192 3,900 -360 Level Chicago Center
08:25PM 42.1933 -87.5500 274° West 167 192 3,200 -540 Descending Chicago Center
08:26PM 42.1989 -87.6169 276° West 172 198 2,900 -180 Descending Chicago Center
08:27PM 42.2042 -87.6914 275° West 172 198 2,900  Level Chicago Center
08:29PM 42.1922 -87.7467 254° West 165 190 2,900 -420 Level Chicago Center
08:30PM 42.1753 -87.8044 248° West 163 188 2,100 -540 Descending Chicago Center
08:31PM 42.1542 -87.8622 244° Southwest 169 194 1,900 -240 Descending Chicago Center
08:32PM 42.1383 -87.9286 252° West 167 192 1,700 -240 Descending Chicago Center
08:34PM 42.1143 -87.9015 166° South  Level Estimated